Terminal Aerodrome Forecast
Issued by NWS

Home | Current Version | Previous Version | Text Only | Print | Product List | Glossary On
Versions: 1 2 3 4 5 6 7 8 9 10 11 12 13 14 15 16 17 18 19 20 21 22 23 24 25
225
FTUS43 KLSX 291734
TAFUIN
TAF
KUIN 291734Z 2918/3018 09015G25KT P6SM SCT015 OVC035
     FM300200 09015G25KT 4SM -SHRA OVC015
      TEMPO 3002/3005 2SM +TSRA OVC007CB
     FM300500 10015G26KT 4SM -SHRA VCTS OVC015CB
     FM301000 11011G18KT P6SM VCSH OVC003
     FM301600 14007KT 5SM -SHRA VCTS OVC008CB=

USA.gov is the U.S. government's official web portal to all federal, state and local government web resources and services.